Time;durP1;ratioP1;P1;durP2;ratioP2;P2;SDS_P1;SDS_P2;PMS_P1;PMS_P2;Temp;Humidity;BMP_temperature;BMP_pressure;BME280_temperature;BME280_humidity;BME280_pressure;Samples;Min_cycle;Max_cycle;Signal;HPM_P1;HPM_P2
2021/07/10 00:00:07;;;;;;;6.45;5.85;;;;;;;;;;5050795;28;19970;-74
2021/07/10 00:02:34;;;;;;;6.30;5.80;;;;;;;;;;5059258;28;20074;-74
2021/07/10 00:05:00;;;;;;;;;;;;;;;;;;5072637;28;20024;-75
2021/07/10 00:07:26;;;;;;;6.25;5.75;;;;;;;;;;5071398;28;20276;-75
2021/07/10 00:09:53;;;;;;;6.57;5.97;;;;;;;;;;5069985;28;20469;-74
2021/07/10 00:12:19;;;;;;;6.20;5.70;;;;;;;;;;4013585;28;10000736;-74
2021/07/10 00:14:45;;;;;;;6.15;5.65;;;;;;;;;;5050401;28;20467;-74
2021/07/10 00:17:11;;;;;;;6.68;6.07;;;;;;;;;;5048802;28;20025;-73
2021/07/10 00:19:37;;;;;;;5.97;5.47;;;;;;;;;;5049722;28;20050;-74
2021/07/10 00:22:04;;;;;;;6.53;5.93;;;;;;;;;;5052317;28;20043;-75
2021/07/10 00:24:31;;;;;;;;;;;;;;;;;;5050644;28;20037;-75
2021/07/10 00:26:57;;;;;;;;;;;;;;;;;;5061522;28;19917;-73
2021/07/10 00:29:25;;;;;;;6.17;5.67;;;;;;;;;;5062277;28;19912;-74
2021/07/10 00:31:51;;;;;;;6.63;5.95;;;;;;;;;;5050836;28;20268;-73
2021/07/10 00:34:17;;;;;;;6.23;5.63;;;;;;;;;;5050129;28;20040;-76
2021/07/10 00:36:43;;;;;;;5.97;5.47;;;;;;;;;;5050603;28;20262;-75
2021/07/10 00:39:09;;;;;;;6.55;5.50;;;;;;;;;;5050804;28;20359;-75
2021/07/10 00:41:35;;;;;;;6.20;5.70;;;;;;;;;;5051053;28;20036;-74
2021/07/10 00:44:01;;;;;;;10.40;6.07;;;;;;;;;;5030193;28;20392;-75
2021/07/10 00:46:29;;;;;;;6.93;6.20;;;;;;;;;;5030802;28;20025;-73
2021/07/10 00:48:55;;;;;;;7.25;5.65;;;;;;;;;;5030852;28;20464;-73
2021/07/10 00:51:21;;;;;;;6.10;5.60;;;;;;;;;;5032406;28;20032;-74
2021/07/10 00:53:48;;;;;;;7.40;5.63;;;;;;;;;;5034800;28;20075;-74
2021/07/10 00:56:14;;;;;;;6.05;5.55;;;;;;;;;;5039980;28;20409;-73
2021/07/10 00:58:40;;;;;;;6.10;5.50;;;;;;;;;;5053839;28;20037;-73
2021/07/10 01:01:07;;;;;;;6.72;6.13;;;;;;;;;;5053414;28;20799;-72
2021/07/10 01:03:34;;;;;;;6.38;5.88;;;;;;;;;;5054146;28;20064;-74
2021/07/10 01:06:01;;;;;;;6.43;5.82;;;;;;;;;;5055671;28;20039;-75
2021/07/10 01:08:27;;;;;;;6.45;5.85;;;;;;;;;;5072383;28;20043;-73
2021/07/10 01:10:53;;;;;;;7.20;5.95;;;;;;;;;;5074887;28;20463;-73
2021/07/10 01:13:20;;;;;;;6.38;5.78;;;;;;;;;;5060247;28;20470;-74
2021/07/10 01:15:46;;;;;;;6.35;5.75;;;;;;;;;;5053862;28;20074;-73
2021/07/10 01:18:12;;;;;;;6.23;5.70;;;;;;;;;;5053821;28;20178;-76
2021/07/10 01:20:47;;;;;;;6.55;5.90;;;;;;;;;;5051750;28;20119;-74
2021/07/10 01:23:14;;;;;;;6.35;5.75;;;;;;;;;;5050697;28;20083;-73
2021/07/10 01:25:40;;;;;;;6.43;5.83;;;;;;;;;;5052878;28;20033;-75
2021/07/10 01:28:08;;;;;;;6.43;5.82;;;;;;;;;;5053849;28;20100;-75
2021/07/10 01:30:35;;;;;;;6.20;5.70;;;;;;;;;;5073762;28;20017;-75
2021/07/10 01:33:01;;;;;;;6.13;5.63;;;;;;;;;;5073983;28;20386;-76
2021/07/10 01:35:27;;;;;;;6.27;5.63;;;;;;;;;;5074461;28;20382;-73
2021/07/10 01:37:53;;;;;;;6.10;5.60;;;;;;;;;;5072644;28;20040;-76
2021/07/10 01:40:20;;;;;;;6.25;5.75;;;;;;;;;;5074012;28;20021;-75
2021/07/10 01:42:46;;;;;;;6.32;5.72;;;;;;;;;;5066698;28;20016;-73
2021/07/10 01:45:13;;;;;;;6.32;5.72;;;;;;;;;;5053740;28;20378;-75
2021/07/10 01:47:39;;;;;;;6.40;5.80;;;;;;;;;;5052211;28;20032;-75
2021/07/10 01:50:06;;;;;;;7.75;5.80;;;;;;;;;;5053493;28;20386;-73
2021/07/10 01:52:34;;;;;;;6.68;6.07;;;;;;;;;;5054004;28;20017;-75
2021/07/10 01:55:01;;;;;;;6.55;5.97;;;;;;;;;;5054089;28;20453;-74
2021/07/10 01:57:27;;;;;;;6.65;5.63;;;;;;;;;;5067617;28;20032;-74
2021/07/10 01:59:53;;;;;;;6.60;5.90;;;;;;;;;;5060704;28;20032;-74
2021/07/10 02:02:23;;;;;;;5.88;5.38;;;;;;;;;;5051922;28;20523;-74
2021/07/10 02:04:50;;;;;;;6.70;6.10;;;;;;;;;;5053200;28;20099;-74
2021/07/10 02:07:16;;;;;;;;;;;;;;;;;;5072777;28;20044;-73
2021/07/10 02:09:42;;;;;;;6.72;6.03;;;;;;;;;;5069150;28;19954;-75
2021/07/10 02:12:09;;;;;;;6.00;5.50;;;;;;;;;;5047339;28;20475;-76
2021/07/10 02:14:35;;;;;;;6.43;5.93;;;;;;;;;;5033634;28;20360;-74
2021/07/10 02:17:01;;;;;;;6.65;5.80;;;;;;;;;;5033024;28;20474;-73
2021/07/10 02:19:27;;;;;;;6.80;6.20;;;;;;;;;;5041074;28;20028;-76
2021/07/10 02:21:56;;;;;;;6.63;6.03;;;;;;;;;;5056512;28;20474;-75
2021/07/10 02:24:22;;;;;;;5.97;5.47;;;;;;;;;;5052509;28;20071;-74
2021/07/10 02:26:48;;;;;;;6.72;6.03;;;;;;;;;;5060801;28;20032;-75
2021/07/10 02:29:14;;;;;;;6.10;5.45;;;;;;;;;;5064342;28;20020;-75
2021/07/10 02:31:40;;;;;;;6.03;5.53;;;;;;;;;;5053237;28;20390;-74
2021/07/10 02:34:06;;;;;;;6.72;6.13;;;;;;;;;;5052702;28;20036;-75
2021/07/10 02:36:32;;;;;;;7.18;6.47;;;;;;;;;;5053454;28;20033;-73
2021/07/10 02:38:59;;;;;;;6.45;5.95;;;;;;;;;;5050707;28;20513;-76
2021/07/10 02:41:25;;;;;;;6.40;5.80;;;;;;;;;;5043633;28;20107;-74
2021/07/10 02:43:51;;;;;;;6.20;5.70;;;;;;;;;;5051686;28;20492;-73
2021/07/10 02:46:17;;;;;;;6.22;5.65;;;;;;;;;;5052773;28;20021;-73
2021/07/10 02:48:44;;;;;;;6.60;6.00;;;;;;;;;;5051449;28;20111;-76
2021/07/10 02:51:10;;;;;;;;;;;;;;;;;;5052617;28;20423;-73
2021/07/10 02:53:36;;;;;;;6.72;6.00;;;;;;;;;;5052792;28;19971;-75
2021/07/10 02:56:03;;;;;;;6.65;6.00;;;;;;;;;;5050986;28;20037;-75
2021/07/10 02:58:29;;;;;;;7.03;6.38;;;;;;;;;;5050995;28;20036;-75
2021/07/10 03:00:55;;;;;;;7.13;6.10;;;;;;;;;;5051495;28;20021;-73
2021/07/10 03:03:21;;;;;;;6.90;6.30;;;;;;;;;;5050660;28;20033;-75
2021/07/10 03:05:47;;;;;;;6.15;5.65;;;;;;;;;;5052281;28;20021;-75
2021/07/10 03:08:14;;;;;;;6.30;5.75;;;;;;;;;;5049907;28;20394;-76
2021/07/10 03:10:42;;;;;;;6.13;5.63;;;;;;;;;;5050334;28;20025;-76
2021/07/10 03:13:08;;;;;;;6.43;5.78;;;;;;;;;;5048982;28;20087;-75
2021/07/10 03:15:35;;;;;;;6.25;5.65;;;;;;;;;;5051661;28;20021;-75
2021/07/10 03:18:01;;;;;;;6.35;5.82;;;;;;;;;;5051745;28;20021;-73
2021/07/10 03:20:30;;;;;;;6.43;5.90;;;;;;;;;;5052326;28;20485;-74
2021/07/10 03:22:56;;;;;;;6.72;6.13;;;;;;;;;;5051928;28;20036;-76
2021/07/10 03:25:22;;;;;;;6.22;5.63;;;;;;;;;;5051935;28;20021;-75
2021/07/10 03:27:49;;;;;;;6.63;6.00;;;;;;;;;;5067883;28;20797;-76
2021/07/10 03:30:16;;;;;;;6.40;5.88;;;;;;;;;;5053986;28;20367;-75
2021/07/10 03:32:42;;;;;;;6.28;5.78;;;;;;;;;;5049024;28;20537;-74
2021/07/10 03:35:09;;;;;;;5.80;5.30;;;;;;;;;;5050792;28;20025;-75
2021/07/10 03:37:35;;;;;;;6.60;6.03;;;;;;;;;;5048822;28;20044;-75
2021/07/10 03:40:03;;;;;;;6.15;5.65;;;;;;;;;;5051785;28;20021;-74
2021/07/10 03:42:29;;;;;;;6.53;5.93;;;;;;;;;;5043601;28;20091;-73
2021/07/10 03:44:55;;;;;;;6.57;5.97;;;;;;;;;;5032384;28;20026;-73
2021/07/10 03:47:21;;;;;;;6.30;5.78;;;;;;;;;;5031202;28;20044;-75
2021/07/10 03:49:47;;;;;;;6.30;5.80;;;;;;;;;;5029915;28;20021;-75
2021/07/10 03:52:13;;;;;;;5.82;5.32;;;;;;;;;;5037934;28;20838;-75
2021/07/10 03:54:39;;;;;;;5.95;5.28;;;;;;;;;;5050432;28;20039;-73
2021/07/10 03:57:05;;;;;;;6.15;5.65;;;;;;;;;;5062623;28;20064;-74
2021/07/10 03:59:31;;;;;;;6.07;5.50;;;;;;;;;;5061034;28;20083;-73
2021/07/10 04:01:57;;;;;;;5.95;5.45;;;;;;;;;;5051241;28;20029;-75
2021/07/10 04:04:23;;;;;;;6.47;5.90;;;;;;;;;;5051789;28;20144;-75
2021/07/10 04:06:49;;;;;;;6.70;6.10;;;;;;;;;;5050772;28;20417;-76
2021/07/10 04:09:15;;;;;;;6.28;5.78;;;;;;;;;;5051344;28;20031;-76
2021/07/10 04:11:43;;;;;;;6.35;5.85;;;;;;;;;;5056948;28;20021;-75
2021/07/10 04:14:09;;;;;;;6.25;5.72;;;;;;;;;;5038253;28;20084;-75
2021/07/10 04:16:35;;;;;;;6.50;6.00;;;;;;;;;;5051654;28;20037;-77
2021/07/10 04:19:01;;;;;;;6.10;5.60;;;;;;;;;;5075821;28;20029;-75
2021/07/10 04:21:27;;;;;;;7.03;5.73;;;;;;;;;;4367429;28;10000902;-77
2021/07/10 04:23:53;;;;;;;6.45;5.85;;;;;;;;;;5040000;28;20059;-74
2021/07/10 04:26:19;;;;;;;6.00;5.50;;;;;;;;;;5037897;28;20068;-75
2021/07/10 04:28:45;;;;;;;6.78;6.18;;;;;;;;;;5039473;28;20025;-76
2021/07/10 04:31:11;;;;;;;6.70;6.10;;;;;;;;;;5040840;28;20027;-70
2021/07/10 04:33:38;;;;;;;6.25;5.65;;;;;;;;;;5039428;28;20025;-75
2021/07/10 04:36:05;;;;;;;6.70;6.10;;;;;;;;;;5038825;28;20020;-73
2021/07/10 04:38:37;;;;;;;6.32;5.72;;;;;;;;;;5040298;28;20025;-73
2021/07/10 04:41:03;;;;;;;6.43;5.82;;;;;;;;;;5040352;28;20386;-76
2021/07/10 04:43:29;;;;;;;5.97;5.47;;;;;;;;;;5040069;28;20504;-75
2021/07/10 04:45:56;;;;;;;6.25;5.60;;;;;;;;;;5036750;28;20112;-72
2021/07/10 04:48:22;;;;;;;6.32;5.72;;;;;;;;;;5039809;28;20018;-75
2021/07/10 04:50:48;;;;;;;6.38;5.78;;;;;;;;;;5038516;28;20029;-74
2021/07/10 04:53:15;;;;;;;6.60;6.00;;;;;;;;;;5037022;28;20028;-75
2021/07/10 04:55:42;;;;;;;6.20;5.65;;;;;;;;;;5036665;28;20028;-73
2021/07/10 04:58:08;;;;;;;6.40;5.90;;;;;;;;;;5039546;28;20118;-74
2021/07/10 05:00:36;;;;;;;6.18;5.63;;;;;;;;;;5039225;28;20021;-75
2021/07/10 05:03:02;;;;;;;6.70;6.10;;;;;;;;;;5037940;28;20440;-73
2021/07/10 05:05:28;;;;;;;6.20;5.70;;;;;;;;;;5041540;28;20095;-75
2021/07/10 05:07:54;;;;;;;6.80;6.18;;;;;;;;;;5036443;28;20021;-73
2021/07/10 05:10:21;;;;;;;6.35;5.75;;;;;;;;;;5036699;28;20067;-73
2021/07/10 05:12:47;;;;;;;6.63;6.03;;;;;;;;;;5038712;28;20026;-75
2021/07/10 05:15:13;;;;;;;6.75;6.15;;;;;;;;;;5041821;28;20637;-74
2021/07/10 05:17:41;;;;;;;7.50;6.15;;;;;;;;;;5038436;28;20394;-75
2021/07/10 05:20:07;;;;;;;6.47;5.88;;;;;;;;;;5042888;28;20033;-73
2021/07/10 05:22:34;;;;;;;6.70;6.00;;;;;;;;;;5039229;28;20155;-73
2021/07/10 05:25:00;;;;;;;6.68;6.07;;;;;;;;;;5041366;28;20034;-75
2021/07/10 05:27:26;;;;;;;6.68;6.10;;;;;;;;;;5040491;28;20402;-72
2021/07/10 05:29:52;;;;;;;6.90;6.30;;;;;;;;;;5037658;28;20056;-73
2021/07/10 05:32:19;;;;;;;6.70;6.10;;;;;;;;;;5038537;28;20082;-74
2021/07/10 05:34:45;;;;;;;6.85;6.20;;;;;;;;;;5036546;28;20017;-75
2021/07/10 05:37:11;;;;;;;6.60;6.00;;;;;;;;;;5036130;28;20083;-75
2021/07/10 05:39:38;;;;;;;6.40;5.80;;;;;;;;;;5037353;28;20068;-75
2021/07/10 05:42:04;;;;;;;;;;;;;;;;;;5037167;28;20258;-73
2021/07/10 05:44:31;;;;;;;6.40;5.80;;;;;;;;;;5041742;28;19915;-73
2021/07/10 05:46:57;;;;;;;7.50;6.57;;;;;;;;;;5037735;28;20024;-74
2021/07/10 05:49:23;;;;;;;6.65;6.07;;;;;;;;;;5038152;28;20481;-75
2021/07/10 05:51:49;;;;;;;6.82;6.22;;;;;;;;;;5038369;28;20025;-73
2021/07/10 05:54:15;;;;;;;7.00;6.30;;;;;;;;;;5038385;28;20025;-73
2021/07/10 05:56:41;;;;;;;6.20;5.70;;;;;;;;;;5035389;28;20112;-72
2021/07/10 05:59:07;;;;;;;6.38;5.78;;;;;;;;;;5037484;28;20032;-73
2021/07/10 06:01:34;;;;;;;6.60;6.10;;;;;;;;;;5038344;28;20597;-76
2021/07/10 06:04:01;;;;;;;6.73;6.13;;;;;;;;;;5040072;28;20052;-73
2021/07/10 06:06:27;;;;;;;6.93;5.93;;;;;;;;;;5037982;28;20021;-74
2021/07/10 06:08:54;;;;;;;6.28;5.68;;;;;;;;;;5037321;28;20075;-74
2021/07/10 06:11:20;;;;;;;6.35;5.80;;;;;;;;;;5037285;28;20546;-72
2021/07/10 06:13:46;;;;;;;6.68;6.07;;;;;;;;;;5037547;28;20389;-72
2021/07/10 06:16:12;;;;;;;6.10;5.60;;;;;;;;;;5035664;28;20502;-75
2021/07/10 06:18:38;;;;;;;6.43;5.93;;;;;;;;;;5037202;28;20542;-72
2021/07/10 06:21:04;;;;;;;6.28;5.70;;;;;;;;;;5037520;28;20486;-74
2021/07/10 06:23:30;;;;;;;6.20;5.70;;;;;;;;;;5036651;28;20051;-75
2021/07/10 06:25:59;;;;;;;5.88;5.38;;;;;;;;;;5037958;28;20041;-75
2021/07/10 06:28:25;;;;;;;6.25;5.72;;;;;;;;;;5041623;28;20021;-73
2021/07/10 06:30:51;;;;;;;7.28;5.78;;;;;;;;;;5035826;28;20314;-75
2021/07/10 06:33:17;;;;;;;6.32;5.60;;;;;;;;;;5036041;28;21126;-75
2021/07/10 06:35:43;;;;;;;6.35;5.47;;;;;;;;;;5035394;28;20487;-75
2021/07/10 06:38:09;;;;;;;6.20;5.70;;;;;;;;;;5037203;28;20025;-73
2021/07/10 06:40:35;;;;;;;6.43;5.82;;;;;;;;;;5036951;28;20020;-75
2021/07/10 06:43:01;;;;;;;6.43;5.82;;;;;;;;;;5036672;28;20024;-75
2021/07/10 06:45:27;;;;;;;5.95;5.40;;;;;;;;;;5035815;28;20025;-74
2021/07/10 06:47:55;;;;;;;5.82;5.32;;;;;;;;;;5036565;28;20029;-75
2021/07/10 06:50:21;;;;;;;6.30;5.70;;;;;;;;;;5041759;28;20513;-74
2021/07/10 06:52:48;;;;;;;6.50;5.90;;;;;;;;;;5048565;28;20020;-76
2021/07/10 06:55:15;;;;;;;7.47;5.50;;;;;;;;;;5048975;28;20029;-73
2021/07/10 06:57:41;;;;;;;5.88;5.38;;;;;;;;;;5047725;28;20036;-73
2021/07/10 07:00:08;;;;;;;5.93;5.37;;;;;;;;;;5048348;28;20417;-75
2021/07/10 07:02:34;;;;;;;5.80;5.20;;;;;;;;;;5048143;28;20067;-73
2021/07/10 07:05:01;;;;;;;5.90;5.40;;;;;;;;;;5052803;28;20483;-74
2021/07/10 07:07:27;;;;;;;6.10;5.60;;;;;;;;;;5044999;28;20024;-74
2021/07/10 07:09:53;;;;;;;6.05;5.53;;;;;;;;;;5036143;28;20045;-75
2021/07/10 07:12:18;;;;;;;6.57;5.60;;;;;;;;;;5034683;28;20457;-74
2021/07/10 07:14:44;;;;;;;5.75;5.30;;;;;;;;;;5034349;28;20379;-74
2021/07/10 07:17:10;;;;;;;6.10;5.60;;;;;;;;;;5033979;28;20121;-72
2021/07/10 07:19:36;;;;;;;5.82;5.32;;;;;;;;;;5036238;28;20025;-74
2021/07/10 07:22:03;;;;;;;5.60;5.10;;;;;;;;;;5038871;28;20061;-73
2021/07/10 07:24:29;;;;;;;5.75;5.25;;;;;;;;;;5036494;28;20144;-75
2021/07/10 07:26:56;;;;;;;;;;;;;;;;;;5038581;28;20049;-72
2021/07/10 07:29:22;;;;;;;6.10;5.60;;;;;;;;;;5035696;28;19912;-73
2021/07/10 07:31:48;;;;;;;6.10;5.50;;;;;;;;;;5035648;28;20024;-72
2021/07/10 07:34:16;;;;;;;6.50;5.90;;;;;;;;;;5033990;28;20028;-74
2021/07/10 07:36:42;;;;;;;6.00;5.50;;;;;;;;;;5034902;28;20389;-75
2021/07/10 07:39:08;;;;;;;5.75;5.25;;;;;;;;;;5036330;28;20029;-74
2021/07/10 07:41:35;;;;;;;5.72;5.22;;;;;;;;;;5036141;28;20048;-75
2021/07/10 07:44:02;;;;;;;6.38;5.78;;;;;;;;;;5031895;28;20039;-73
2021/07/10 07:46:28;;;;;;;7.25;5.70;;;;;;;;;;5036696;28;20026;-74
2021/07/10 07:48:57;;;;;;;6.45;5.85;;;;;;;;;;5034659;28;20498;-74
2021/07/10 07:51:24;;;;;;;5.50;5.00;;;;;;;;;;5035582;28;20017;-74
2021/07/10 07:53:50;;;;;;;5.88;5.28;;;;;;;;;;5035567;28;20112;-75
2021/07/10 07:56:16;;;;;;;5.93;5.43;;;;;;;;;;5035921;28;20201;-73
2021/07/10 07:58:42;;;;;;;6.00;5.50;;;;;;;;;;5035112;28;20110;-73
2021/07/10 08:01:09;;;;;;;6.40;5.80;;;;;;;;;;5038015;28;20626;-74
2021/07/10 08:03:35;;;;;;;6.45;5.82;;;;;;;;;;5037693;28;20029;-75
2021/07/10 08:06:02;;;;;;;6.10;5.60;;;;;;;;;;5036001;28;20029;-73
2021/07/10 08:08:28;;;;;;;6.40;5.75;;;;;;;;;;5041185;28;20025;-75
2021/07/10 08:10:54;;;;;;;6.40;5.77;;;;;;;;;;5037504;28;20025;-73
2021/07/10 08:13:20;;;;;;;6.60;5.65;;;;;;;;;;5031925;28;20028;-74
2021/07/10 08:15:46;;;;;;;6.30;5.37;;;;;;;;;;5033980;28;20044;-72
2021/07/10 08:18:13;;;;;;;5.85;5.35;;;;;;;;;;5031498;28;20283;-73
2021/07/10 08:20:40;;;;;;;6.05;5.45;;;;;;;;;;5036975;28;20053;-75
2021/07/10 08:23:05;;;;;;;;;;;;;;;;;;5034918;28;20040;-73
2021/07/10 08:25:32;;;;;;;6.43;5.83;;;;;;;;;;5037405;28;19909;-72
2021/07/10 08:27:59;;;;;;;6.43;5.93;;;;;;;;;;5037720;28;20111;-72
2021/07/10 08:30:26;;;;;;;5.90;5.38;;;;;;;;;;5037762;28;20074;-75
2021/07/10 08:32:53;;;;;;;6.22;5.63;;;;;;;;;;5038218;28;20383;-75
2021/07/10 08:35:20;;;;;;;6.25;5.65;;;;;;;;;;5035657;28;20067;-74
2021/07/10 08:37:47;;;;;;;6.97;5.93;;;;;;;;;;5033765;28;20403;-74
2021/07/10 08:40:13;;;;;;;6.70;6.10;;;;;;;;;;5036571;28;20545;-72
2021/07/10 08:42:39;;;;;;;5.80;5.30;;;;;;;;;;5034789;28;20493;-74
2021/07/10 08:45:10;;;;;;;5.70;5.07;;;;;;;;;;5035834;28;20052;-72
2021/07/10 08:47:37;;;;;;;6.18;5.50;;;;;;;;;;5039057;28;20086;-75
2021/07/10 08:50:07;;;;;;;5.90;5.40;;;;;;;;;;5039837;28;20086;-74
2021/07/10 08:52:35;;;;;;;6.20;5.60;;;;;;;;;;5044805;28;20028;-72
2021/07/10 08:55:02;;;;;;;6.00;5.50;;;;;;;;;;5041226;28;20497;-73
2021/07/10 08:57:28;;;;;;;6.22;5.65;;;;;;;;;;5047786;28;20067;-73
2021/07/10 08:59:54;;;;;;;5.80;5.30;;;;;;;;;;5046932;28;20555;-75
2021/07/10 09:02:20;;;;;;;6.10;5.60;;;;;;;;;;5050046;28;20040;-73
2021/07/10 09:04:46;;;;;;;6.10;5.50;;;;;;;;;;5044365;28;20033;-73
2021/07/10 09:07:12;;;;;;;6.32;5.70;;;;;;;;;;5048774;28;20025;-73
2021/07/10 09:09:57;;;;;;;5.95;5.35;;;;;;;;;;5040271;28;20026;-74
2021/07/10 09:12:34;;;;;;;6.20;5.60;;;;;;;;;;5053941;28;20016;-74
2021/07/10 09:15:20;;;;;;;6.95;5.70;;;;;;;;;;5057499;28;20028;-72
2021/07/10 09:17:48;;;;;;;6.53;5.97;;;;;;;;;;5059748;28;20024;-74
2021/07/10 09:20:22;;;;;;;5.95;5.45;;;;;;;;;;5059755;28;20080;-75
2021/07/10 09:22:48;;;;;;;6.40;5.80;;;;;;;;;;5056465;28;20581;-74
2021/07/10 09:25:32;;;;;;;6.17;5.57;;;;;;;;;;5074921;28;20081;-72
2021/07/10 09:28:02;;;;;;;6.20;5.60;;;;;;;;;;5074592;28;20277;-74
2021/07/10 09:30:31;;;;;;;6.47;5.78;;;;;;;;;;5056588;28;20017;-74
2021/07/10 09:33:19;;;;;;;5.65;5.25;;;;;;;;;;5054749;28;20040;-74
2021/07/10 09:35:49;;;;;;;6.18;5.57;;;;;;;;;;5054557;28;20382;-75
2021/07/10 09:38:23;;;;;;;6.13;5.63;;;;;;;;;;5053236;28;20059;-74
2021/07/10 09:40:58;;;;;;;6.85;5.53;;;;;;;;;;5052585;28;20112;-74
2021/07/10 09:43:29;;;;;;;6.18;5.55;;;;;;;;;;5054862;28;20021;-75
2021/07/10 09:45:56;;;;;;;5.93;5.43;;;;;;;;;;5055558;28;20383;-74
2021/07/10 09:48:26;;;;;;;5.75;5.25;;;;;;;;;;5053250;28;20021;-72
2021/07/10 09:51:12;;;;;;;6.45;5.32;;;;;;;;;;5051838;28;20017;-73
2021/07/10 09:53:38;;;;;;;5.90;5.40;;;;;;;;;;5033818;28;20026;-72
2021/07/10 09:56:08;;;;;;;5.95;5.38;;;;;;;;;;5033162;28;20037;-72
2021/07/10 09:58:35;;;;;;;5.72;5.22;;;;;;;;;;5032967;28;20029;-73
2021/07/10 10:01:01;;;;;;;;;;;;;;;;;;5052172;28;20478;-74
2021/07/10 10:03:34;;;;;;;6.05;5.53;;;;;;;;;;5056136;28;19908;-73
2021/07/10 10:06:20;;;;;;;5.45;4.95;;;;;;;;;;5058575;28;20028;-73
2021/07/10 10:08:46;;;;;;;6.55;5.55;;;;;;;;;;5061026;28;20026;-72
2021/07/10 10:11:12;;;;;;;6.13;5.63;;;;;;;;;;5051375;28;20037;-73
2021/07/10 10:13:38;;;;;;;6.40;5.80;;;;;;;;;;5060803;28;20290;-75
2021/07/10 10:16:13;;;;;;;5.50;5.05;;;;;;;;;;5056520;28;20111;-75
2021/07/10 10:18:40;;;;;;;5.50;5.00;;;;;;;;;;5054688;28;20029;-76
2021/07/10 10:21:06;;;;;;;5.95;5.10;;;;;;;;;;5058115;28;20028;-75
2021/07/10 10:23:33;;;;;;;5.88;5.38;;;;;;;;;;5052075;28;21718;-74
2021/07/10 10:25:59;;;;;;;6.28;5.68;;;;;;;;;;5062760;28;20028;-75
2021/07/10 10:28:26;;;;;;;6.68;5.97;;;;;;;;;;5054285;28;20022;-72
2021/07/10 10:30:52;;;;;;;;;;;;;;;;;;5059847;28;20393;-72
2021/07/10 10:33:18;;;;;;;5.93;5.43;;;;;;;;;;5050694;28;19905;-75
2021/07/10 10:35:46;;;;;;;7.10;5.25;;;;;;;;;;5052655;28;20269;-74
2021/07/10 10:38:12;;;;;;;5.35;4.85;;;;;;;;;;5071069;28;20021;-74
2021/07/10 10:40:39;;;;;;;5.97;5.43;;;;;;;;;;5070809;28;20020;-73
2021/07/10 10:43:06;;;;;;;5.68;5.18;;;;;;;;;;5071346;28;20044;-72
2021/07/10 10:45:33;;;;;;;5.90;5.40;;;;;;;;;;5051967;28;20025;-75
2021/07/10 10:48:00;;;;;;;6.18;5.53;;;;;;;;;;5049794;28;20156;-76
2021/07/10 10:50:34;;;;;;;5.47;4.97;;;;;;;;;;4336342;28;10000725;-74
2021/07/10 10:53:00;;;;;;;5.78;5.28;;;;;;;;;;5031867;28;20059;-73
2021/07/10 10:55:30;;;;;;;5.72;5.15;;;;;;;;;;5031986;28;20116;-73
2021/07/10 10:58:15;;;;;;;5.45;4.95;;;;;;;;;;5032074;28;20051;-72
2021/07/10 11:00:42;;;;;;;5.90;5.30;;;;;;;;;;5050824;28;20029;-75
2021/07/10 11:03:15;;;;;;;5.72;5.22;;;;;;;;;;5053074;28;20032;-74
2021/07/10 11:05:41;;;;;;;5.38;4.88;;;;;;;;;;5052872;28;20075;-75
2021/07/10 11:08:19;;;;;;;5.78;5.28;;;;;;;;;;5051455;28;20370;-74
2021/07/10 11:10:58;;;;;;;5.60;5.10;;;;;;;;;;5052671;28;20024;-74
2021/07/10 11:13:40;;;;;;;5.72;5.22;;;;;;;;;;5041678;28;20029;-73
2021/07/10 11:16:14;;;;;;;5.75;5.25;;;;;;;;;;5031332;28;20084;-74
2021/07/10 11:18:59;;;;;;;5.55;4.95;;;;;;;;;;5031484;28;20025;-73
2021/07/10 11:21:34;;;;;;;7.15;5.20;;;;;;;;;;5031712;28;20102;-73
2021/07/10 11:24:23;;;;;;;5.43;5.03;;;;;;;;;;5032996;28;20514;-75
2021/07/10 11:26:55;;;;;;;5.53;5.07;;;;;;;;;;5049150;28;20059;-73
2021/07/10 11:29:22;;;;;;;5.68;5.13;;;;;;;;;;5051868;28;20033;-75
2021/07/10 11:31:48;;;;;;;;;;;;;;;;;;5045225;28;20026;-74
2021/07/10 11:34:16;;;;;;;5.83;5.33;;;;;;;;;;5039109;28;19960;-74
2021/07/10 11:36:47;;;;;;;5.30;4.80;;;;;;;;;;5037495;28;20039;-75
2021/07/10 11:39:26;;;;;;;5.28;4.80;;;;;;;;;;5041680;28;20053;-78
2021/07/10 11:41:55;;;;;;;4.97;4.57;;;;;;;;;;5039152;28;20454;-76
2021/07/10 11:44:22;;;;;;;5.40;4.93;;;;;;;;;;5042189;28;20143;-72
2021/07/10 11:46:48;;;;;;;;;;;;;;;;;;5052927;28;20093;-76
2021/07/10 11:49:33;;;;;;;5.30;4.90;;;;;;;;;;5052094;28;19999;-73
2021/07/10 11:51:59;;;;;;;5.47;4.93;;;;;;;;;;5039346;28;20355;-76
2021/07/10 11:54:25;;;;;;;5.35;4.95;;;;;;;;;;5032368;28;20048;-76
2021/07/10 11:56:51;;;;;;;5.15;4.75;;;;;;;;;;5032292;28;20079;-73
2021/07/10 11:59:17;;;;;;;5.20;4.80;;;;;;;;;;5031801;28;20498;-74
2021/07/10 12:01:43;;;;;;;5.28;4.78;;;;;;;;;;5032004;28;20033;-75
2021/07/10 12:04:10;;;;;;;5.00;4.60;;;;;;;;;;5031720;28;20037;-75
2021/07/10 12:06:36;;;;;;;5.72;5.10;;;;;;;;;;5032097;28;20026;-73
2021/07/10 12:09:02;;;;;;;5.78;5.28;;;;;;;;;;5045102;28;20040;-72
2021/07/10 12:11:29;;;;;;;5.18;4.68;;;;;;;;;;5051955;28;20122;-74
2021/07/10 12:14:03;;;;;;;4.87;4.43;;;;;;;;;;5061428;28;20025;-73
2021/07/10 12:16:29;;;;;;;5.40;4.90;;;;;;;;;;5071830;28;20044;-75
2021/07/10 12:18:55;;;;;;;5.03;4.60;;;;;;;;;;5072014;28;20035;-73
2021/07/10 12:21:21;;;;;;;4.68;4.28;;;;;;;;;;5057674;28;20025;-74
2021/07/10 12:23:47;;;;;;;5.50;5.00;;;;;;;;;;5029992;28;20035;-73
2021/07/10 12:26:17;;;;;;;4.90;4.40;;;;;;;;;;5031543;28;20061;-74
2021/07/10 12:28:48;;;;;;;4.70;4.30;;;;;;;;;;5035016;28;20803;-75
2021/07/10 12:31:19;;;;;;;4.60;4.20;;;;;;;;;;5068277;28;20024;-76
2021/07/10 12:33:47;;;;;;;5.03;4.53;;;;;;;;;;5071617;28;20422;-75
2021/07/10 12:36:17;;;;;;;8.18;4.60;;;;;;;;;;5070289;28;20116;-74
2021/07/10 12:38:53;;;;;;;5.10;4.60;;;;;;;;;;5069825;28;20024;-75
2021/07/10 12:41:24;;;;;;;5.07;4.68;;;;;;;;;;5071024;28;20039;-75
2021/07/10 12:43:50;;;;;;;4.78;4.38;;;;;;;;;;5066562;28;20373;-75
2021/07/10 12:46:17;;;;;;;4.80;4.40;;;;;;;;;;5069451;28;20035;-73
2021/07/10 12:48:43;;;;;;;5.07;4.63;;;;;;;;;;5073426;28;20063;-73
2021/07/10 12:51:09;;;;;;;4.90;4.43;;;;;;;;;;5066077;28;20282;-74
2021/07/10 12:53:38;;;;;;;4.82;4.43;;;;;;;;;;5033571;28;20025;-74
2021/07/10 12:56:41;;;;;;;5.10;4.47;;;;;;;;;;5035572;28;20025;-74
2021/07/10 12:59:08;;;;;;;4.85;4.45;;;;;;;;;;5038605;28;20029;-74
2021/07/10 13:01:34;;;;;;;5.13;4.53;;;;;;;;;;5055436;28;20049;-76
2021/07/10 13:04:01;;;;;;;4.55;4.15;;;;;;;;;;5055063;28;20490;-73
2021/07/10 13:06:28;;;;;;;4.60;4.20;;;;;;;;;;5053886;28;20037;-76
2021/07/10 13:08:56;;;;;;;4.63;4.22;;;;;;;;;;5054918;28;20619;-74
2021/07/10 13:11:23;;;;;;;4.95;4.47;;;;;;;;;;5053658;28;20035;-74
2021/07/10 13:13:57;;;;;;;4.60;4.20;;;;;;;;;;5054875;28;20032;-76
2021/07/10 13:16:25;;;;;;;4.75;4.28;;;;;;;;;;5062488;28;20036;-75
2021/07/10 13:18:51;;;;;;;4.25;3.85;;;;;;;;;;5071877;28;20013;-74
2021/07/10 13:21:19;;;;;;;4.50;4.10;;;;;;;;;;4350328;28;10000232;-72
2021/07/10 13:23:55;;;;;;;4.20;3.90;;;;;;;;;;5037348;28;20555;-75
2021/07/10 13:26:21;;;;;;;;;;;;;;;;;;5036237;28;20041;-74
2021/07/10 13:28:48;;;;;;;6.65;4.05;;;;;;;;;;5040715;28;19908;-75
2021/07/10 13:31:16;;;;;;;3.95;3.65;;;;;;;;;;5038986;28;20041;-74
2021/07/10 13:33:43;;;;;;;4.07;3.67;;;;;;;;;;5038224;28;20013;-73
2021/07/10 13:36:20;;;;;;;3.95;3.63;;;;;;;;;;5038597;28;20104;-74
2021/07/10 13:38:46;;;;;;;;;;;;;;;;;;5037845;28;20064;-74
2021/07/10 13:41:32;;;;;;;4.00;3.60;;;;;;;;;;5036299;28;20413;-75
2021/07/10 13:44:00;;;;;;;3.80;3.50;;;;;;;;;;5039684;28;20336;-73
2021/07/10 13:46:30;;;;;;;4.07;3.50;;;;;;;;;;5037357;28;20568;-74
2021/07/10 13:48:57;;;;;;;4.05;3.75;;;;;;;;;;5037436;28;20553;-73
2021/07/10 13:51:24;;;;;;;3.80;3.50;;;;;;;;;;5038964;28;20025;-75
2021/07/10 13:53:50;;;;;;;3.83;3.50;;;;;;;;;;5038158;28;20420;-74
2021/07/10 13:56:20;;;;;;;3.78;3.47;;;;;;;;;;5038722;28;20029;-74
2021/07/10 13:59:01;;;;;;;3.67;3.38;;;;;;;;;;5037406;28;20029;-72
2021/07/10 14:01:27;;;;;;;3.80;3.40;;;;;;;;;;5040230;28;20090;-73
2021/07/10 14:03:54;;;;;;;4.25;3.85;;;;;;;;;;5038464;28;20029;-74
2021/07/10 14:06:20;;;;;;;3.60;3.30;;;;;;;;;;5042165;28;20020;-74
2021/07/10 14:08:46;;;;;;;4.10;3.22;;;;;;;;;;5040309;28;20477;-75
2021/07/10 14:11:12;;;;;;;4.40;4.00;;;;;;;;;;5039257;28;20077;-75
2021/07/10 14:13:38;;;;;;;3.78;3.40;;;;;;;;;;5037002;28;20033;-74
2021/07/10 14:16:05;;;;;;;3.85;3.50;;;;;;;;;;5037553;28;20021;-74
2021/07/10 14:18:31;;;;;;;3.50;3.17;;;;;;;;;;5038183;28;20025;-73
2021/07/10 14:20:57;;;;;;;3.83;3.53;;;;;;;;;;5037696;28;20076;-73
2021/07/10 14:23:27;;;;;;;3.60;3.30;;;;;;;;;;5037973;28;20033;-76
2021/07/10 14:25:55;;;;;;;4.15;3.75;;;;;;;;;;5040464;28;20078;-75
2021/07/10 14:28:22;;;;;;;5.05;3.38;;;;;;;;;;5037204;28;20020;-73
2021/07/10 14:30:48;;;;;;;;;;;;;;;;;;5039177;28;20586;-74
2021/07/10 14:33:14;;;;;;;3.85;3.40;;;;;;;;;;5037847;28;19909;-75
2021/07/10 14:35:40;;;;;;;3.50;3.20;;;;;;;;;;5037368;28;20061;-74
2021/07/10 14:38:06;;;;;;;4.03;3.67;;;;;;;;;;5038621;28;20828;-75
2021/07/10 14:40:35;;;;;;;3.70;3.40;;;;;;;;;;5039231;28;20040;-75
2021/07/10 14:43:01;;;;;;;3.67;3.38;;;;;;;;;;5036541;28;20083;-77
2021/07/10 14:45:28;;;;;;;3.67;3.28;;;;;;;;;;5036680;28;20017;-76
2021/07/10 14:47:54;;;;;;;3.88;3.58;;;;;;;;;;5035806;28;20467;-73
2021/07/10 14:50:20;;;;;;;;;;;;;;;;;;5036826;28;20029;-74